Time;durP1;ratioP1;P1;durP2;ratioP2;P2;SDS_P1;SDS_P2;PMS_P1;PMS_P2;Temp;Humidity;BMP_temperature;BMP_pressure;BME280_temperature;BME280_humidity;BME280_pressure;Samples;Min_cycle;Max_cycle;Signal;HPM_P1;HPM_P2
2022/03/24 00:02:24;;;;;;;37.03;22.83;;;;;;;;;;5076257;28;20556;-73
2022/03/24 00:05:00;;;;;;;37.97;23.63;;;;;;;;;;5076653;28;20523;-73
2022/03/24 00:07:28;;;;;;;43.63;25.10;;;;;;;;;;5076588;28;20541;-73
2022/03/24 00:09:58;;;;;;;44.80;24.53;;;;;;;;;;5076289;28;20547;-73
2022/03/24 00:12:28;;;;;;;42.87;25.07;;;;;;;;;;5076192;28;20487;-73
2022/03/24 00:14:56;;;;;;;41.80;23.30;;;;;;;;;;5079836;28;20464;-73
2022/03/24 00:17:24;;;;;;;44.90;25.57;;;;;;;;;;5079935;28;20606;-73
2022/03/24 00:19:59;;;;;;;46.00;24.10;;;;;;;;;;5079637;28;20759;-73
2022/03/24 00:22:30;;;;;;;47.43;25.50;;;;;;;;;;5080284;28;20494;-73
2022/03/24 00:24:58;;;;;;;49.13;27.63;;;;;;;;;;5080275;28;20487;-73
2022/03/24 00:27:25;;;;;;;43.63;24.10;;;;;;;;;;5080097;28;20503;-73
2022/03/24 00:29:55;;;;;;;43.13;25.93;;;;;;;;;;5079239;28;20467;-73
2022/03/24 00:32:25;;;;;;;49.10;26.70;;;;;;;;;;5079386;28;20468;-73
2022/03/24 00:34:53;;;;;;;46.80;24.97;;;;;;;;;;5079694;28;20509;-73
2022/03/24 00:37:20;;;;;;;39.83;24.00;;;;;;;;;;5079731;28;20524;-73
2022/03/24 00:39:48;;;;;;;46.07;25.80;;;;;;;;;;5078648;28;20479;-73
2022/03/24 00:42:16;;;;;;;46.30;25.23;;;;;;;;;;5073902;28;20551;-73
2022/03/24 00:44:44;;;;;;;47.03;25.33;;;;;;;;;;5079163;28;20531;-72
2022/03/24 00:47:15;;;;;;;46.83;26.27;;;;;;;;;;5079357;28;20464;-73
2022/03/24 00:49:43;;;;;;;45.43;24.40;;;;;;;;;;5079400;28;20531;-73
2022/03/24 00:52:10;;;;;;;44.67;26.23;;;;;;;;;;5079337;28;20860;-73
2022/03/24 00:54:38;;;;;;;50.30;26.40;;;;;;;;;;5079391;28;20453;-73
2022/03/24 00:57:07;;;;;;;46.93;24.83;;;;;;;;;;5079305;28;20469;-73
2022/03/24 00:59:35;;;;;;;52.93;26.07;;;;;;;;;;5079211;28;20757;-73
2022/03/24 01:02:02;;;;;;;39.77;24.67;;;;;;;;;;5078859;28;20458;-73
2022/03/24 01:04:32;;;;;;;45.60;24.90;;;;;;;;;;5078136;28;20491;-73
2022/03/24 01:07:00;;;;;;;37.27;23.70;;;;;;;;;;5078780;28;20452;-73
2022/03/24 01:09:28;;;;;;;41.43;22.57;;;;;;;;;;5078099;28;20724;-73
2022/03/24 01:11:56;;;;;;;41.83;24.20;;;;;;;;;;5078288;28;20460;-73
2022/03/24 01:14:25;;;;;;;43.33;23.27;;;;;;;;;;5078944;28;20556;-73
2022/03/24 01:16:52;;;;;;;43.37;22.37;;;;;;;;;;5078287;28;20570;-74
2022/03/24 01:19:20;;;;;;;42.20;20.10;;;;;;;;;;5078813;28;20834;-72
2022/03/24 01:21:49;;;;;;;36.17;21.43;;;;;;;;;;5078820;28;20459;-73
2022/03/24 01:24:18;;;;;;;41.27;20.87;;;;;;;;;;5078564;28;20495;-73
2022/03/24 01:26:45;;;;;;;34.20;20.60;;;;;;;;;;5078344;28;20459;-73
2022/03/24 01:29:15;;;;;;;42.33;24.43;;;;;;;;;;5077960;28;20469;-74
2022/03/24 01:31:43;;;;;;;39.33;21.80;;;;;;;;;;5069692;28;20457;-73
2022/03/24 01:34:11;;;;;;;42.80;23.43;;;;;;;;;;5073096;28;20476;-73
2022/03/24 01:36:42;;;;;;;39.83;22.10;;;;;;;;;;5078563;28;20533;-73
2022/03/24 01:39:11;;;;;;;39.97;22.10;;;;;;;;;;5078310;28;20520;-72
2022/03/24 01:41:40;;;;;;;41.27;21.43;;;;;;;;;;5070449;28;20886;-73
2022/03/24 01:44:18;;;;;;;42.00;22.00;;;;;;;;;;5058602;28;20490;-73
2022/03/24 01:46:56;;;;;;;39.87;22.70;;;;;;;;;;5069804;28;20836;-73
2022/03/24 01:49:24;;;;;;;34.20;20.77;;;;;;;;;;5077178;28;20476;-73
2022/03/24 01:51:52;;;;;;;35.30;20.30;;;;;;;;;;5060003;28;20465;-73
2022/03/24 01:54:21;;;;;;;38.47;22.20;;;;;;;;;;5057470;28;20552;-74
2022/03/24 01:56:49;;;;;;;39.57;22.40;;;;;;;;;;5063896;28;20470;-73
2022/03/24 01:59:19;;;;;;;34.63;21.83;;;;;;;;;;5077890;28;20873;-73
2022/03/24 02:01:47;;;;;;;33.97;18.60;;;;;;;;;;5076963;28;20472;-74
2022/03/24 02:04:16;;;;;;;36.10;21.77;;;;;;;;;;5077429;28;20484;-73
2022/03/24 02:06:44;;;;;;;41.17;21.50;;;;;;;;;;5071602;28;20535;-73
2022/03/24 02:09:12;;;;;;;40.53;21.93;;;;;;;;;;5057766;28;20834;-73
2022/03/24 02:11:42;;;;;;;38.90;22.50;;;;;;;;;;5056981;28;20739;-73
2022/03/24 02:14:09;;;;;;;37.00;22.77;;;;;;;;;;5057085;28;20469;-73
2022/03/24 02:16:38;;;;;;;38.10;21.93;;;;;;;;;;5057808;28;20464;-72
2022/03/24 02:19:12;;;;;;;49.47;21.90;;;;;;;;;;5057348;28;20834;-73
2022/03/24 02:21:40;;;;;;;36.87;20.20;;;;;;;;;;5056847;28;21057;-73
2022/03/24 02:24:13;;;;;;;35.90;19.43;;;;;;;;;;5057539;28;20488;-73
2022/03/24 02:26:42;;;;;;;39.80;21.50;;;;;;;;;;5074291;28;20552;-73
2022/03/24 02:29:11;;;;;;;45.57;23.30;;;;;;;;;;5077220;28;20479;-73
2022/03/24 02:31:39;;;;;;;37.27;21.60;;;;;;;;;;5077253;28;20464;-74
2022/03/24 02:36:52;;;;;;;40.43;20.87;;;;;;;;;;5076128;28;20878;-73
2022/03/24 02:39:22;;;;;;;37.03;20.30;;;;;;;;;;5077062;28;20538;-73
2022/03/24 02:41:51;;;;;;;45.13;22.70;;;;;;;;;;5076297;28;20961;-73
2022/03/24 02:44:19;;;;;;;42.40;23.40;;;;;;;;;;5076680;28;20480;-73
2022/03/24 02:46:47;;;;;;;39.43;22.40;;;;;;;;;;5077121;28;20457;-73
2022/03/24 02:49:15;;;;;;;40.27;22.10;;;;;;;;;;5077219;28;20464;-73
2022/03/24 02:51:43;;;;;;;37.33;20.80;;;;;;;;;;5059587;28;20457;-73
2022/03/24 02:54:12;;;;;;;40.67;22.50;;;;;;;;;;5057018;28;20472;-74
2022/03/24 02:56:42;;;;;;;37.87;21.47;;;;;;;;;;5056102;28;20457;-74
2022/03/24 02:59:10;;;;;;;36.97;21.77;;;;;;;;;;5056701;28;20461;-73
2022/03/24 03:01:41;;;;;;;40.10;21.80;;;;;;;;;;5056105;28;20540;-74
2022/03/24 03:04:09;;;;;;;42.90;21.83;;;;;;;;;;5056640;28;20475;-73
2022/03/24 03:06:36;;;;;;;40.40;20.50;;;;;;;;;;5056033;28;20492;-73
2022/03/24 03:09:04;;;;;;;35.53;19.13;;;;;;;;;;5056784;28;20820;-73
2022/03/24 03:11:33;;;;;;;37.80;20.13;;;;;;;;;;5056438;28;20453;-73
2022/03/24 03:14:02;;;;;;;36.60;20.10;;;;;;;;;;5071110;28;20507;-73
2022/03/24 03:16:30;;;;;;;40.63;20.90;;;;;;;;;;5076133;28;20484;-73
2022/03/24 03:18:58;;;;;;;39.73;21.17;;;;;;;;;;5068591;28;20495;-73
2022/03/24 03:21:26;;;;;;;40.40;20.93;;;;;;;;;;5076430;28;20744;-73
2022/03/24 03:23:54;;;;;;;42.83;22.20;;;;;;;;;;5076861;28;20496;-73
2022/03/24 03:26:23;;;;;;;35.33;18.50;;;;;;;;;;5076668;28;20546;-74
2022/03/24 03:28:52;;;;;;;42.47;22.27;;;;;;;;;;5076485;28;21141;-73
2022/03/24 03:31:21;;;;;;;43.07;21.63;;;;;;;;;;5076499;28;20555;-74
2022/03/24 03:33:50;;;;;;;41.00;21.70;;;;;;;;;;5075958;28;20456;-74
2022/03/24 03:36:18;;;;;;;40.53;21.10;;;;;;;;;;5076133;28;20472;-73
2022/03/24 03:38:46;;;;;;;35.97;22.93;;;;;;;;;;5075872;28;20452;-73
2022/03/24 03:41:14;;;;;;;44.47;23.60;;;;;;;;;;5075894;28;20542;-73
2022/03/24 03:43:42;;;;;;;45.10;22.57;;;;;;;;;;5076308;28;20751;-74
2022/03/24 03:46:10;;;;;;;39.53;22.73;;;;;;;;;;5075674;28;20518;-74
2022/03/24 03:48:39;;;;;;;44.10;23.10;;;;;;;;;;5077669;28;20456;-74
2022/03/24 03:51:07;;;;;;;42.67;23.40;;;;;;;;;;5079964;28;20500;-74
2022/03/24 03:59:54;;;;;;;42.90;23.23;;;;;;;;;;5034704;28;20446;-74
2022/03/24 04:09:00;;;;;;;38.90;23.67;;;;;;;;;;4937927;29;20474;-74
2022/03/24 04:20:47;;;;;;;38.50;21.10;;;;;;;;;;5076567;28;20464;-73
2022/03/24 04:23:15;;;;;;;38.20;20.10;;;;;;;;;;5079263;28;20899;-73
2022/03/24 04:25:45;;;;;;;33.73;19.13;;;;;;;;;;5079054;28;20491;-73
2022/03/24 04:28:13;;;;;;;41.03;21.17;;;;;;;;;;5062355;28;20502;-73
2022/03/24 04:30:41;;;;;;;38.60;22.23;;;;;;;;;;5079749;28;20471;-73
2022/03/24 04:33:08;;;;;;;40.37;21.20;;;;;;;;;;5079234;28;20463;-73
2022/03/24 04:35:36;;;;;;;42.97;23.60;;;;;;;;;;5079124;28;20907;-73
2022/03/24 04:38:04;;;;;;;34.60;20.23;;;;;;;;;;5078969;28;20452;-73
2022/03/24 04:40:33;;;;;;;37.03;18.80;;;;;;;;;;5079154;28;20891;-73
2022/03/24 04:43:02;;;;;;;35.63;21.40;;;;;;;;;;5078342;28;20884;-73
2022/03/24 04:45:33;;;;;;;39.07;20.07;;;;;;;;;;5078579;28;20587;-73
2022/03/24 04:48:01;;;;;;;38.40;21.00;;;;;;;;;;5078888;28;20456;-73
2022/03/24 04:50:35;;;;;;;42.63;20.50;;;;;;;;;;5079446;28;20456;-73
2022/03/24 04:53:03;;;;;;;38.20;21.20;;;;;;;;;;5078852;28;20456;-73
2022/03/24 04:55:44;;;;;;;;;;;;;;;;;;;;;
2022/03/24 04:58:16;;;;;;;34.40;18.90;;;;;;;;;;5078475;28;20464;-74
2022/03/24 05:00:44;;;;;;;36.30;19.00;;;;;;;;;;5077526;28;20530;-73
2022/03/24 05:03:13;;;;;;;30.47;20.10;;;;;;;;;;5078893;28;20455;-73
2022/03/24 05:05:41;;;;;;;39.20;20.17;;;;;;;;;;5078842;28;20495;-73
2022/03/24 05:08:08;;;;;;;43.43;21.20;;;;;;;;;;5078674;28;20776;-73
2022/03/24 05:10:36;;;;;;;40.60;21.27;;;;;;;;;;5078479;28;20487;-73
2022/03/24 05:13:05;;;;;;;40.17;21.87;;;;;;;;;;5078232;28;20448;-73
2022/03/24 05:15:34;;;;;;;40.03;19.87;;;;;;;;;;5077810;28;20527;-73
2022/03/24 05:18:02;;;;;;;37.70;19.60;;;;;;;;;;5077996;28;20868;-73
2022/03/24 05:20:30;;;;;;;46.23;22.57;;;;;;;;;;5077403;28;20490;-73
2022/03/24 05:22:57;;;;;;;34.60;18.20;;;;;;;;;;5076051;28;20479;-73
2022/03/24 05:25:26;;;;;;;37.17;21.70;;;;;;;;;;5076827;28;20583;-73
2022/03/24 05:27:54;;;;;;;37.57;21.77;;;;;;;;;;5076693;28;20499;-73
2022/03/24 05:30:28;;;;;;;43.80;22.13;;;;;;;;;;5077098;28;20925;-73
2022/03/24 05:32:58;;;;;;;43.40;21.80;;;;;;;;;;5076995;28;20505;-73
2022/03/24 05:35:26;;;;;;;40.77;20.57;;;;;;;;;;5075767;28;20464;-73
2022/03/24 05:37:53;;;;;;;36.10;21.17;;;;;;;;;;5076628;28;20556;-73
2022/03/24 05:40:21;;;;;;;36.47;20.90;;;;;;;;;;5076527;28;20473;-73
2022/03/24 05:42:49;;;;;;;47.57;22.70;;;;;;;;;;5076491;28;20451;-73
2022/03/24 05:45:16;;;;;;;39.83;21.30;;;;;;;;;;5075346;28;20504;-73
2022/03/24 05:47:44;;;;;;;42.93;23.70;;;;;;;;;;5075914;28;20456;-73
2022/03/24 05:50:14;;;;;;;40.63;22.20;;;;;;;;;;5075645;28;20457;-72
2022/03/24 05:52:41;;;;;;;34.97;20.23;;;;;;;;;;5067238;28;20461;-73
2022/03/24 05:55:12;;;;;;;41.03;22.77;;;;;;;;;;5057567;28;20496;-73
2022/03/24 05:57:41;;;;;;;52.10;24.43;;;;;;;;;;5056372;28;20981;-73
2022/03/24 06:00:09;;;;;;;44.93;23.50;;;;;;;;;;5055664;28;20488;-73
2022/03/24 06:02:37;;;;;;;38.93;21.30;;;;;;;;;;5055341;28;20518;-72
2022/03/24 06:05:08;;;;;;;39.87;21.30;;;;;;;;;;5059605;28;20493;-72
2022/03/24 06:07:38;;;;;;;39.53;21.10;;;;;;;;;;5059088;28;20457;-73
2022/03/24 06:10:06;;;;;;;39.83;21.50;;;;;;;;;;5056612;28;20930;-73
2022/03/24 06:12:39;;;;;;;42.87;21.47;;;;;;;;;;5061842;28;20748;-73
2022/03/24 06:15:11;;;;;;;38.67;21.67;;;;;;;;;;5075592;28;20464;-73
2022/03/24 06:17:46;;;;;;;34.20;21.00;;;;;;;;;;5075343;28;20510;-72
2022/03/24 06:20:14;;;;;;;37.23;20.90;;;;;;;;;;5073072;28;20704;-72
2022/03/24 06:22:51;;;;;;;43.23;23.07;;;;;;;;;;5072272;28;20456;-73
2022/03/24 06:25:22;;;;;;;42.03;24.03;;;;;;;;;;5074111;28;20461;-73
2022/03/24 06:27:50;;;;;;;45.73;23.97;;;;;;;;;;5074211;28;20474;-72
2022/03/24 06:30:19;;;;;;;43.50;22.50;;;;;;;;;;5070829;28;20456;-72
2022/03/24 06:32:46;;;;;;;35.23;22.03;;;;;;;;;;5072851;28;20465;-72
2022/03/24 06:35:15;;;;;;;44.37;23.87;;;;;;;;;;5073659;28;20733;-72
2022/03/24 06:37:44;;;;;;;42.10;19.70;;;;;;;;;;5073234;28;20549;-71
2022/03/24 06:40:15;;;;;;;34.10;20.57;;;;;;;;;;5072447;28;20453;-72
2022/03/24 06:42:50;;;;;;;41.60;21.70;;;;;;;;;;5071010;28;20931;-72
2022/03/24 06:45:21;;;;;;;44.77;23.90;;;;;;;;;;5067567;28;20460;-72
2022/03/24 06:47:49;;;;;;;38.87;22.00;;;;;;;;;;5050279;28;20467;-72
2022/03/24 06:50:17;;;;;;;43.17;23.10;;;;;;;;;;5052068;28;20453;-72
2022/03/24 06:52:45;;;;;;;34.03;20.60;;;;;;;;;;5052644;28;20453;-72
2022/03/24 06:55:14;;;;;;;40.07;20.20;;;;;;;;;;5054032;28;20464;-72
2022/03/24 06:57:42;;;;;;;38.80;21.87;;;;;;;;;;5053990;28;20472;-72
2022/03/24 07:00:12;;;;;;;36.13;21.30;;;;;;;;;;5053293;28;20453;-72
2022/03/24 07:02:40;;;;;;;43.70;24.53;;;;;;;;;;5052260;28;20877;-72
2022/03/24 07:05:11;;;;;;;37.90;22.40;;;;;;;;;;5051881;28;20472;-72
2022/03/24 07:07:39;;;;;;;48.33;24.30;;;;;;;;;;5053079;28;20528;-72
2022/03/24 07:10:07;;;;;;;37.00;22.97;;;;;;;;;;5057568;28;20785;-73
2022/03/24 07:12:37;;;;;;;42.67;23.97;;;;;;;;;;5074851;28;20467;-73
2022/03/24 07:15:08;;;;;;;35.43;22.70;;;;;;;;;;5073937;28;20464;-73
2022/03/24 07:17:36;;;;;;;40.03;22.80;;;;;;;;;;5073156;28;20868;-72
2022/03/24 07:20:04;;;;;;;40.60;21.60;;;;;;;;;;5073556;28;20474;-72
2022/03/24 07:22:35;;;;;;;40.17;22.70;;;;;;;;;;5066032;28;20458;-72
2022/03/24 07:25:05;;;;;;;46.17;24.10;;;;;;;;;;5065941;28;20553;-72
2022/03/24 07:27:33;;;;;;;40.73;24.07;;;;;;;;;;5063191;28;20477;-72
2022/03/24 07:30:02;;;;;;;38.37;22.93;;;;;;;;;;5057153;28;20505;-71
2022/03/24 07:32:30;;;;;;;43.10;24.23;;;;;;;;;;5067669;28;20506;-73
2022/03/24 07:35:01;;;;;;;45.37;22.47;;;;;;;;;;5078576;28;20463;-73
2022/03/24 07:37:31;;;;;;;41.63;23.13;;;;;;;;;;5078084;28;20471;-73
2022/03/24 07:40:03;;;;;;;39.07;22.37;;;;;;;;;;5078430;28;20460;-73
2022/03/24 07:42:31;;;;;;;32.17;19.80;;;;;;;;;;5077367;28;20939;-72
2022/03/24 07:44:59;;;;;;;31.73;20.23;;;;;;;;;;5078749;28;20455;-73
2022/03/24 07:47:29;;;;;;;35.83;21.10;;;;;;;;;;5075804;28;20495;-72
2022/03/24 07:49:59;;;;;;;40.50;20.80;;;;;;;;;;5076444;28;20453;-73
2022/03/24 07:52:30;;;;;;;45.53;23.27;;;;;;;;;;5061456;28;20751;-72
2022/03/24 07:55:04;;;;;;;34.27;20.40;;;;;;;;;;5061837;28;20996;-72
2022/03/24 07:57:31;;;;;;;37.20;18.50;;;;;;;;;;5065565;28;20514;-72
2022/03/24 07:59:59;;;;;;;46.90;21.07;;;;;;;;;;5058727;28;20510;-72
2022/03/24 08:02:44;;;;;;;37.43;20.13;;;;;;;;;;5057439;28;20450;-72
2022/03/24 08:05:13;;;;;;;39.53;19.23;;;;;;;;;;5058242;28;20894;-72
2022/03/24 08:07:42;;;;;;;38.60;20.60;;;;;;;;;;5056717;28;20585;-73
2022/03/24 08:10:15;;;;;;;36.53;23.60;;;;;;;;;;5057605;28;20562;-72
2022/03/24 08:12:43;;;;;;;34.83;22.17;;;;;;;;;;5056536;28;20678;-72
2022/03/24 08:15:13;;;;;;;33.30;19.50;;;;;;;;;;5056720;28;20736;-72
2022/03/24 08:17:45;;;;;;;37.30;21.27;;;;;;;;;;5054956;28;20460;-73
2022/03/24 08:20:16;;;;;;;32.40;18.80;;;;;;;;;;5056247;28;20469;-73
2022/03/24 08:23:01;;;;;;;29.00;18.27;;;;;;;;;;5056446;28;20453;-73
2022/03/24 08:25:35;;;;;;;37.70;20.00;;;;;;;;;;5055993;28;20744;-73
2022/03/24 08:30:51;;;;;;;33.20;20.13;;;;;;;;;;5055101;28;20746;-72
2022/03/24 08:33:29;;;;;;;34.63;20.60;;;;;;;;;;5054175;28;20449;-72
2022/03/24 08:35:57;;;;;;;33.90;21.53;;;;;;;;;;5053394;28;20457;-73
2022/03/24 08:38:25;;;;;;;29.60;16.73;;;;;;;;;;5054583;28;20753;-73
2022/03/24 08:40:53;;;;;;;33.70;18.80;;;;;;;;;;5056691;28;20528;-72
2022/03/24 08:43:21;;;;;;;31.37;17.80;;;;;;;;;;5055607;28;20457;-73
2022/03/24 08:45:51;;;;;;;34.60;19.90;;;;;;;;;;5052251;28;20473;-73
2022/03/24 08:48:23;;;;;;;36.23;21.47;;;;;;;;;;5055637;28;20465;-72
2022/03/24 08:50:51;;;;;;;32.80;19.30;;;;;;;;;;5057063;28;20561;-73
2022/03/24 08:53:19;;;;;;;36.90;19.87;;;;;;;;;;5056721;28;20511;-74
2022/03/24 08:55:47;;;;;;;49.80;20.07;;;;;;;;;;5056165;28;20505;-73
2022/03/24 08:58:18;;;;;;;33.50;18.57;;;;;;;;;;5057560;28;20891;-72
2022/03/24 09:00:54;;;;;;;36.40;20.17;;;;;;;;;;5069101;28;20455;-73
2022/03/24 09:03:28;;;;;;;34.17;20.30;;;;;;;;;;5075435;28;20468;-73
2022/03/24 09:05:59;;;;;;;44.07;23.60;;;;;;;;;;5068419;28;20887;-74
2022/03/24 09:08:34;;;;;;;34.47;19.57;;;;;;;;;;5069862;28;20457;-74
2022/03/24 09:11:02;;;;;;;32.50;18.87;;;;;;;;;;5074579;28;20460;-73
2022/03/24 09:13:31;;;;;;;32.67;18.87;;;;;;;;;;5069083;28;20460;-73
2022/03/24 09:16:00;;;;;;;28.83;18.20;;;;;;;;;;5092370;28;20539;-74
2022/03/24 09:18:37;;;;;;;42.67;21.40;;;;;;;;;;5084078;28;20480;-74
2022/03/24 09:21:14;;;;;;;28.93;18.10;;;;;;;;;;5062504;28;20475;-73
2022/03/24 09:23:48;;;;;;;29.87;18.50;;;;;;;;;;5069672;28;20507;-73
2022/03/24 09:26:27;;;;;;;35.07;17.70;;;;;;;;;;5072568;28;20556;-74
2022/03/24 09:29:31;;;;;;;30.13;16.83;;;;;;;;;;5076748;28;20480;-73
2022/03/24 09:32:00;;;;;;;30.93;16.70;;;;;;;;;;5075824;28;20554;-72
2022/03/24 09:34:31;;;;;;;35.20;16.27;;;;;;;;;;5070610;28;20474;-73
2022/03/24 09:36:59;;;;;;;31.10;17.47;;;;;;;;;;5067082;28;20482;-73
2022/03/24 09:39:46;;;;;;;;;;;;;;;;;;;;;
2022/03/24 09:42:28;;;;;;;33.60;17.80;;;;;;;;;;5071490;28;20441;-73
2022/03/24 09:45:00;;;;;;;28.80;16.83;;;;;;;;;;5069963;28;20500;-73
2022/03/24 09:47:31;;;;;;;28.70;16.97;;;;;;;;;;5075736;28;20574;-72
2022/03/24 09:50:20;;;;;;;28.20;17.57;;;;;;;;;;5075042;28;20463;-74
2022/03/24 09:52:49;;;;;;;30.30;17.57;;;;;;;;;;5073423;28;20457;-74
2022/03/24 09:55:36;;;;;;;;;;;;;;;;;;;;;
2022/03/24 09:58:11;;;;;;;35.83;19.50;;;;;;;;;;5074139;28;20459;-74
2022/03/24 10:00:40;;;;;;;28.40;18.90;;;;;;;;;;5073795;28;20440;-74
2022/03/24 10:03:14;;;;;;;30.20;18.27;;;;;;;;;;5066343;28;20469;-75
2022/03/24 10:05:58;;;;;;;31.90;17.57;;;;;;;;;;5053020;28;20577;-74
2022/03/24 10:08:46;;;;;;;27.90;19.10;;;;;;;;;;5057421;28;20543;-74
2022/03/24 10:14:13;;;;;;;36.80;22.93;;;;;;;;;;5073289;28;20954;-73
2022/03/24 10:16:52;;;;;;;35.30;18.43;;;;;;;;;;5074584;28;20557;-73
2022/03/24 10:19:30;;;;;;;33.20;19.50;;;;;;;;;;5075371;28;20728;-73
2022/03/24 10:22:10;;;;;;;;;;;;;;;;;;;;;
2022/03/24 10:24:44;;;;;;;32.00;20.00;;;;;;;;;;5065399;28;20737;-73
2022/03/24 10:27:30;;;;;;;35.60;18.77;;;;;;;;;;5072303;28;20485;-74
2022/03/24 10:30:16;;;;;;;26.77;17.17;;;;;;;;;;5071263;28;20456;-73
2022/03/24 10:32:55;;;;;;;28.17;16.33;;;;;;;;;;5069605;28;20792;-73
2022/03/24 10:35:23;;;;;;;29.53;16.40;;;;;;;;;;5071765;28;20444;-73
2022/03/24 10:37:53;;;;;;;24.37;16.20;;;;;;;;;;5072410;28;20870;-73
2022/03/24 10:40:22;;;;;;;27.50;16.63;;;;;;;;;;5065419;28;20527;-72
2022/03/24 10:42:59;;;;;;;24.07;15.87;;;;;;;;;;5072951;28;21017;-72
2022/03/24 10:45:30;;;;;;;29.60;16.37;;;;;;;;;;5053885;28;20457;-73
2022/03/24 10:48:05;;;;;;;29.93;16.47;;;;;;;;;;5071344;28;20483;-75
2022/03/24 10:50:39;;;;;;;23.87;14.50;;;;;;;;;;5057439;28;20853;-73
2022/03/24 10:53:10;;;;;;;29.90;16.23;;;;;;;;;;5073270;28;20822;-74
2022/03/24 10:55:47;;;;;;;25.50;15.17;;;;;;;;;;5069396;28;20469;-73
2022/03/24 10:58:22;;;;;;;26.47;17.03;;;;;;;;;;5060484;28;20461;-73
2022/03/24 11:01:02;;;;;;;22.93;12.70;;;;;;;;;;5052937;28;20519;-73
2022/03/24 11:03:43;;;;;;;22.00;14.00;;;;;;;;;;5055282;28;20472;-73
2022/03/24 11:06:27;;;;;;;21.00;12.63;;;;;;;;;;5064038;28;20499;-73
2022/03/24 11:08:56;;;;;;;18.73;11.30;;;;;;;;;;5073465;28;20888;-73
2022/03/24 11:11:24;;;;;;;15.13;9.87;;;;;;;;;;5067103;28;20457;-73
2022/03/24 11:13:58;;;;;;;22.60;10.90;;;;;;;;;;5083068;28;20897;-73
2022/03/24 11:16:27;;;;;;;21.13;11.70;;;;;;;;;;5070990;28;20529;-72
2022/03/24 11:18:56;;;;;;;17.90;10.53;;;;;;;;;;5072400;28;20456;-73
2022/03/24 11:21:31;;;;;;;16.90;9.60;;;;;;;;;;5069778;28;20503;-73
2022/03/24 11:23:59;;;;;;;16.07;9.47;;;;;;;;;;5091714;28;20451;-73
2022/03/24 11:26:36;;;;;;;14.97;9.40;;;;;;;;;;5065802;28;20472;-73
2022/03/24 11:29:06;;;;;;;24.73;11.10;;;;;;;;;;5056385;28;20482;-73
2022/03/24 11:31:39;;;;;;;18.13;9.50;;;;;;;;;;5074146;28;20991;-73
2022/03/24 11:34:07;;;;;;;23.23;12.37;;;;;;;;;;5064422;28;20956;-73
2022/03/24 11:36:41;;;;;;;20.53;12.00;;;;;;;;;;5063769;28;20509;-73
2022/03/24 11:39:11;;;;;;;20.70;10.50;;;;;;;;;;5070102;28;20456;-73
2022/03/24 11:41:40;;;;;;;26.43;13.20;;;;;;;;;;5073181;28;20448;-73
2022/03/24 11:44:34;;;;;;;30.03;14.60;;;;;;;;;;5067941;28;20563;-73
2022/03/24 11:47:02;;;;;;;21.43;14.17;;;;;;;;;;5074286;28;20451;-72
2022/03/24 11:49:32;;;;;;;20.23;11.87;;;;;;;;;;5066910;28;20652;-74
2022/03/24 11:52:19;;;;;;;23.50;12.90;;;;;;;;;;5071274;28;20945;-74
2022/03/24 11:54:54;;;;;;;23.53;12.07;;;;;;;;;;5058859;28;20995;-74
2022/03/24 11:57:29;;;;;;;20.67;11.37;;;;;;;;;;5052045;28;20920;-74
2022/03/24 12:00:15;;;;;;;22.23;12.33;;;;;;;;;;5063480;28;21106;-74
2022/03/24 12:02:45;;;;;;;18.63;11.10;;;;;;;;;;5070793;28;20472;-73
2022/03/24 12:05:16;;;;;;;20.23;12.30;;;;;;;;;;5067061;28;20461;-74
2022/03/24 12:07:45;;;;;;;26.63;14.63;;;;;;;;;;5069042;28;20495;-73
2022/03/24 12:10:14;;;;;;;21.70;13.50;;;;;;;;;;5060238;28;20844;-73
2022/03/24 12:13:06;;;;;;;23.93;12.60;;;;;;;;;;5064676;28;20842;-74
2022/03/24 12:15:34;;;;;;;33.37;15.63;;;;;;;;;;5075060;28;20465;-73
2022/03/24 12:18:05;;;;;;;25.70;13.70;;;;;;;;;;5066895;28;20544;-73
2022/03/24 12:20:40;;;;;;;23.63;13.60;;;;;;;;;;5057722;28;20539;-72
2022/03/24 12:23:08;;;;;;;22.73;13.43;;;;;;;;;;5064764;28;20463;-73
2022/03/24 12:25:38;;;;;;;27.90;15.63;;;;;;;;;;5075656;28;20824;-74
2022/03/24 12:28:23;;;;;;;24.37;14.90;;;;;;;;;;5074908;28;20479;-75
2022/03/24 12:31:15;;;;;;;28.80;16.10;;;;;;;;;;5052747;28;20449;-73
2022/03/24 12:34:15;;;;;;;22.30;14.57;;;;;;;;;;5072513;28;20490;-74
2022/03/24 12:36:43;;;;;;;23.30;13.17;;;;;;;;;;5077963;28;20820;-73
2022/03/24 12:39:11;;;;;;;21.60;13.80;;;;;;;;;;5076452;28;20462;-73
2022/03/24 12:41:39;;;;;;;20.77;13.70;;;;;;;;;;5072352;28;21137;-73
2022/03/24 12:44:10;;;;;;;23.17;12.77;;;;;;;;;;5076410;28;20456;-74
2022/03/24 12:46:43;;;;;;;18.50;12.50;;;;;;;;;;5073659;28;20640;-73
2022/03/24 12:49:36;;;;;;;21.03;14.13;;;;;;;;;;5073998;28;20613;-73
2022/03/24 12:52:11;;;;;;;20.50;13.27;;;;;;;;;;5075392;28;20456;-74
2022/03/24 12:54:43;;;;;;;17.53;12.40;;;;;;;;;;5073573;28;20452;-73
2022/03/24 12:57:28;;;;;;;20.80;12.60;;;;;;;;;;5048276;28;20450;-73
2022/03/24 12:59:56;;;;;;;20.97;13.07;;;;;;;;;;5073397;28;21153;-73
2022/03/24 13:02:34;;;;;;;26.10;12.50;;;;;;;;;;5074374;28;20449;-73
2022/03/24 13:05:02;;;;;;;21.33;11.80;;;;;;;;;;5065210;28;20470;-73
2022/03/24 13:07:38;;;;;;;20.50;12.03;;;;;;;;;;5057469;28;20588;-73
2022/03/24 13:10:14;;;;;;;19.93;12.23;;;;;;;;;;5072821;28;20452;-72
2022/03/24 13:12:43;;;;;;;16.90;11.27;;;;;;;;;;5074406;28;20564;-72
2022/03/24 13:15:25;;;;;;;18.40;11.20;;;;;;;;;;5077363;28;20517;-73
2022/03/24 13:17:53;;;;;;;20.47;11.57;;;;;;;;;;5073710;28;20476;-73
2022/03/24 13:20:29;;;;;;;18.30;10.90;;;;;;;;;;5075137;28;20869;-72
2022/03/24 13:23:06;;;;;;;16.47;12.20;;;;;;;;;;5083508;28;20474;-73
2022/03/24 13:25:34;;;;;;;17.10;10.10;;;;;;;;;;5060225;28;20522;-72
2022/03/24 13:28:06;;;;;;;17.97;11.77;;;;;;;;;;5055883;28;20485;-72
2022/03/24 13:30:39;;;;;;;17.53;10.67;;;;;;;;;;5063914;28;20541;-73
2022/03/24 13:33:14;;;;;;;16.70;10.53;;;;;;;;;;5056349;28;20461;-73
2022/03/24 13:35:42;;;;;;;19.30;11.20;;;;;;;;;;5056034;28;20870;-72
2022/03/24 13:38:14;;;;;;;17.90;11.60;;;;;;;;;;5055312;28;20742;-73
2022/03/24 13:40:47;;;;;;;23.10;12.80;;;;;;;;;;5053251;28;20461;-73
2022/03/24 13:43:15;;;;;;;21.40;12.57;;;;;;;;;;5064549;28;20856;-71
2022/03/24 13:45:48;;;;;;;22.77;13.30;;;;;;;;;;5075875;28;20531;-73
2022/03/24 13:48:19;;;;;;;18.93;11.37;;;;;;;;;;5063726;28;20545;-72
2022/03/24 13:50:49;;;;;;;21.30;11.97;;;;;;;;;;5074823;28;20904;-72
2022/03/24 13:53:22;;;;;;;38.00;21.13;;;;;;;;;;5081342;28;20515;-72
2022/03/24 13:55:51;;;;;;;20.43;12.30;;;;;;;;;;5079378;28;20471;-72
2022/03/24 13:58:22;;;;;;;30.00;14.53;;;;;;;;;;5095371;28;20460;-72
2022/03/24 14:00:52;;;;;;;20.50;11.60;;;;;;;;;;5070974;28;20464;-72
2022/03/24 14:03:23;;;;;;;20.17;13.63;;;;;;;;;;5057487;28;20500;-72
2022/03/24 14:05:52;;;;;;;17.83;12.67;;;;;;;;;;5077244;28;20461;-72
2022/03/24 14:08:34;;;;;;;20.07;12.00;;;;;;;;;;5092712;28;20526;-72
2022/03/24 14:11:07;;;;;;;23.10;12.77;;;;;;;;;;5076947;28;20504;-72
2022/03/24 14:13:36;;;;;;;21.17;13.10;;;;;;;;;;5071442;28;20628;-72
2022/03/24 14:16:16;;;;;;;24.30;13.40;;;;;;;;;;5063054;28;20468;-72
2022/03/24 14:19:05;;;;;;;21.50;12.77;;;;;;;;;;5070095;28;20558;-72
2022/03/24 14:21:38;;;;;;;27.53;17.07;;;;;;;;;;5074339;28;20479;-72
2022/03/24 14:24:08;;;;;;;30.20;14.03;;;;;;;;;;5069196;28;20508;-72
2022/03/24 14:26:36;;;;;;;22.33;14.77;;;;;;;;;;5056025;28;20515;-72
2022/03/24 14:29:21;;;;;;;26.30;15.43;;;;;;;;;;5066091;28;20502;-72
2022/03/24 14:31:49;;;;;;;21.90;14.50;;;;;;;;;;5057477;28;20450;-74
2022/03/24 14:34:19;;;;;;;21.43;13.40;;;;;;;;;;5073539;28;20523;-73
2022/03/24 14:36:49;;;;;;;25.10;14.97;;;;;;;;;;5073937;28;20463;-73
2022/03/24 14:39:20;;;;;;;20.50;13.67;;;;;;;;;;5056096;28;20538;-73
2022/03/24 14:41:50;;;;;;;24.17;13.97;;;;;;;;;;5054015;28;20462;-74
2022/03/24 14:44:19;;;;;;;20.97;13.67;;;;;;;;;;5067564;28;20457;-73
2022/03/24 14:46:51;;;;;;;23.73;14.43;;;;;;;;;;5072947;28;20510;-73
2022/03/24 14:49:19;;;;;;;22.43;13.70;;;;;;;;;;5069532;28;20499;-74
2022/03/24 14:51:49;;;;;;;23.70;15.47;;;;;;;;;;5068892;28;20912;-74
2022/03/24 14:54:17;;;;;;;24.93;14.67;;;;;;;;;;5071766;28;21052;-71
2022/03/24 14:56:50;;;;;;;23.13;13.93;;;;;;;;;;5073508;28;20544;-72
2022/03/24 14:59:19;;;;;;;20.40;13.60;;;;;;;;;;5079638;28;20468;-72
2022/03/24 15:01:47;;;;;;;25.53;14.40;;;;;;;;;;5074025;28;20534;-74
2022/03/24 15:04:26;;;;;;;26.07;13.17;;;;;;;;;;5068788;28;20556;-71
2022/03/24 15:07:00;;;;;;;20.60;13.37;;;;;;;;;;5057679;28;20891;-73
2022/03/24 15:09:33;;;;;;;26.00;14.67;;;;;;;;;;5070370;28;20495;-73
2022/03/24 15:12:04;;;;;;;21.90;13.00;;;;;;;;;;5061545;28;21028;-71
2022/03/24 15:17:24;;;;;;;27.30;14.27;;;;;;;;;;5053012;28;20464;-73
2022/03/24 15:19:52;;;;;;;23.47;16.23;;;;;;;;;;5061797;28;20511;-74